Erwinville, LA

12:46 PM CDT on May 29, 2015 (GMT -0500)
Acadiana Regional | | Change Station
CLOSE
Current Station
Airport
Location: New Iberia,
Elevation: 23 ft
Nearby Weather Stations

Elev 23 ft 30.04 °N, 91.88 °W | Updated 35 minutes ago

Mostly Cloudy
Mostly Cloudy
86 °F
Feels Like 93 °F
N
12
Wind Variable Wind from SSW
Gusts 16 mph

Today
High -- | Low -- °F
--% Chance of Precip.
Yesterday
High -- | Low -- °F
Precip. -- in
6:04 AM 8:01 PM
Waxing Gibbous, 85% visible
Pressure 30.06 in
Visibility 10.0 miles
Clouds Mostly Cloudy 3000 ft
Mostly Cloudy 4000 ft
Heat Index 93 °F
Dew Point 73 °F
Humidity 65%
Rainfall 0.00 in
Snow Depth Not available.
UV 7 out of 12
Pollen 4.50 out of 12
Air Quality Not available.
Flu Activity Sporadic
SPECI KARA 291711Z AUTO 20010G14KT 10SM BKN030 BKN040 30/23 A3006 RMK AO2 T03000228

More Conditions Fewer Conditions

Pressure 30.06 in
Visibility 10.0 miles
Clouds Mostly Cloudy 3000 ft
Mostly Cloudy 4000 ft
Heat Index 93 °F
Dew Point 73 °F
Humidity 65%
Rainfall 0.00 in
Snow Depth Not available.
UV 7 out of 12
Pollen 4.50 out of 12
Air Quality Not available.
Flu Activity Sporadic
SPECI KARA 291711Z AUTO 20010G14KT 10SM BKN030 BKN040 30/23 A3006 RMK AO2 T03000228

More Conditions Fewer Conditions

10-Day Weather Forecast

Almanac

Astronomy

May. 29, 2015 Rise Set
Actual Time
Civil Twilight
Nautical Twilight
Astronomical Twilight
Moon
Length of Visible Light
Length of Day
Tomorrow will be .
, % of the Moon is Illuminated

Today's Extremes

State Highs State Lows

Community

WunderPhotos

Upload Photos

1,825,306 photos uploaded!

WunderBlogs® & News

Nearby

Air Quality

  Air Quality AQ Index Pollutant
Not available.

Snow Depth

Station Depth Elevation

Earthquake Activity

City Distance Mag. Time & Date
Minimum magnitude displayed is 2.5.

Coastal Water Temperatures

Place Temperature

Stations

Nearby Weather Stations

Station Location Temp. Windchill Dew Point Humidity Wind Precip. Elev Updated Type